Skip to main content

NOAA/GLERL Met Station at Chicago, IL

Previous 5 days (top of hour only)
See also Previous 3 Hours (2 minute increments)
Jump down to Data
Switch to [English][Metric]
Zoom: Click and drag, Pan: shift-click and drag, Unzoom: double-click, Unzoom All




Note: Speed = mean wind during 2-minute period at top of hour,
Gust = max wind during 2-minute period at top of hour,
Peak = max wind during entire hour.
• See also 5-day windrose plot


NOAA/GLERL Met Station at Chicago, IL

Previous 5 days (top of hour only)
See also Previous 3 Hours (2 minute increments)
Jump up to Graphs
Switch to [English][Metric]
                  Wind  Wind  Wind   Air   Dew   Rel
                   Spd   Gst   Dir  Temp    Pt   Hum
YYYY-MM-DD   CST   kts   kts   deg     F     F     %
2019-12-07 00:00 -99.0 -99.0   -99   0.0   0.0   0.0
2019-12-06 00:00  17.5  19.6   243  48.4  39.0  69.8
2019-12-05 23:00  20.2  22.2   212  46.8  39.2  74.7
2019-12-05 22:00  11.3  11.9   206  46.0  39.0  76.3
2019-12-05 21:00  14.0  14.8   177  44.1  38.0  78.9
2019-12-05 20:00  14.0  14.8   179  44.1  36.9  75.6
2019-12-05 19:00  14.6  15.2   178  43.7  36.3  75.0
2019-12-05 18:00  14.4  14.6   178  43.9  35.2  71.3
2019-12-05 17:00  12.6  13.2   186  45.0  34.5  66.3
2019-12-05 16:00  12.1  12.4   185  43.9  33.5  66.5
2019-12-05 15:00  13.6  14.2   185  44.1  32.3  63.0
2019-12-05 14:00  10.3  11.5   186  42.1  33.5  71.2
2019-12-05 13:00  10.7  12.6   161  41.4  31.6  68.0
2019-12-05 12:00  11.3  11.9   183  40.5  31.3  69.5
2019-12-05 11:00   8.9   9.9   167  37.9  32.8  81.4
2019-12-05 10:00   8.9   9.9   175  37.2  30.6  76.8
2019-12-05 09:00   5.8   6.2   187  37.0  32.2  82.5
2019-12-05 08:00   4.3   4.7   270  35.2  31.8  87.0
2019-12-05 07:00   5.2   5.6   270  35.1  30.9  84.6
2019-12-05 06:00   7.2   7.6   261  34.9  30.9  85.3
2019-12-05 05:00   7.4   8.2   271  34.0  30.0  85.3
2019-12-05 04:00  11.9  12.4   259  35.2  30.2  81.5
2019-12-05 03:00  10.1  10.9   270  35.2  29.4  78.9
2019-12-05 02:00  10.3  11.1   291  36.5  30.0  77.0
2019-12-05 01:00  10.7  11.9   295  37.0  29.3  73.3
2019-12-05 00:00  13.2  14.2   297  37.6  27.9  67.7
2019-12-04 23:00  11.3  12.6   300  38.1  29.3  70.3
2019-12-04 22:00  11.3  12.1   302  38.7  28.6  66.8
2019-12-04 21:00  11.9  12.4   324  39.2  28.1  64.0
2019-12-04 20:00  16.3  17.9   321  40.5  28.8  62.7
2019-12-04 19:00  20.6  24.7   305  42.3  29.3  59.7
2019-12-04 18:00  15.6  17.3   290  42.8  30.3  61.0
2019-12-04 17:00  17.7  19.8   290  43.0  29.0  57.5
2019-12-04 16:00  21.0  24.1   298  43.0  27.3  53.6
2019-12-04 15:00  22.9  24.9   292  42.4  26.4  52.6
2019-12-04 14:00  23.1  27.2   295  41.7  26.7  54.8
2019-12-04 13:00  18.9  20.8   296  40.5  28.5  62.1
2019-12-04 12:00  26.0  29.7   287  40.6  27.7  59.7
2019-12-04 11:00  16.3  17.9   286  39.2  29.9  68.9
2019-12-04 10:00  18.1  20.2   281  37.4  29.7  73.3
2019-12-04 09:00  21.6  23.7   275  35.4  29.1  77.5
2019-12-04 08:00  23.1  26.0   274  34.3  29.2  81.1
2019-12-04 07:00  22.4  24.5   277  34.0  29.4  83.0
2019-12-04 06:00  24.1  26.8   274  34.0  29.5  83.3
2019-12-04 05:00  23.7  26.6   264  34.3  29.1  80.8
2019-12-04 04:00  19.6  21.0   265  35.1  30.2  82.1
2019-12-04 03:00  21.0  24.5   275  35.4  31.5  85.4
2019-12-04 02:00  16.5  19.8   282  36.0  32.1  85.7
2019-12-04 01:00  19.2  21.4   275  36.5  32.9  86.6
2019-12-04 00:00  23.1  26.4   271  37.8  34.2  86.9
2019-12-03 23:00  18.1  20.8   263  39.0  34.9  85.0
2019-12-03 22:00  17.1  19.6   262  39.6  35.6  85.6
2019-12-03 21:00  17.1  19.8   260  39.7  35.4  84.1
2019-12-03 20:00  18.5  22.0   254  40.5  35.1  80.9
2019-12-03 19:00  19.4  23.5   250  41.0  34.5  77.3
2019-12-03 18:00  20.6  23.9   242  40.5  33.4  75.5
2019-12-03 17:00  20.6  24.7   242  40.3  32.4  73.1
2019-12-03 16:00  17.1  19.6   240  40.1  31.7  71.5
2019-12-03 15:00  15.4  18.9   239  39.7  30.3  68.6
2019-12-03 14:00   8.2  10.5   239  38.7  30.0  70.7
2019-12-03 13:00  16.1  18.3   214  37.0  30.0  75.5
2019-12-03 12:00  15.2  17.1   212  35.8  29.4  77.2
2019-12-03 11:00  18.1  20.2   208  33.8  29.3  83.4
2019-12-03 10:00  19.4  21.6   198  32.7  28.5  84.3
2019-12-03 09:00  18.1  19.4   197  31.6  28.6  88.4
2019-12-03 08:00  17.9  21.2   197  30.9  29.1  93.0
2019-12-03 07:00  22.4  25.1   204  31.1  29.1  92.1
2019-12-03 06:00  17.7  19.6   207  30.9  28.9  92.2
2019-12-03 05:00  19.4  21.6   211  31.1  30.1  96.0
2019-12-03 04:00  11.5  15.9   222  31.6  29.4  91.4
2019-12-03 03:00  16.9  18.7   208  31.3  28.8  90.5
2019-12-03 02:00  15.2  19.4   209  31.3  28.3  88.7
2019-12-03 01:00  17.5  20.0   204  30.9  27.7  87.8
2019-12-03 00:00  14.6  15.6   199  31.5  27.5  85.2
2019-12-02 23:00  10.9  13.8   222  32.7  27.4  80.6
2019-12-02 22:00  11.9  12.6   216  32.2  28.0  84.3
2019-12-02 21:00   8.7   9.7   250  32.7  27.7  81.4
2019-12-02 20:00   8.9  10.3   267  33.3  28.1  81.1
2019-12-02 19:00   8.7   9.5   298  33.3  28.5  82.5
2019-12-02 18:00  10.9  11.7   299  33.3  28.2  81.4
2019-12-02 17:00  12.1  13.0   275  34.0  28.9  81.4
2019-12-02 15:00  11.9  12.8   309  34.2  28.4  79.2
2019-12-02 14:00   9.3  10.5   300  34.3  27.7  76.4
2019-12-02 13:00  11.9  13.2   309  33.8  28.5  80.8
2019-12-02 12:00  14.4  16.3   328  32.7  27.7  81.5
2019-12-02 11:00  14.2  17.1   344  31.5  27.0  83.4
2019-12-02 10:00  15.7  18.9   324  31.5  26.2  80.5
2019-12-02 09:00  18.5  22.7   327  31.6  27.7  85.1
2019-12-02 08:00  23.7  25.3   327  31.1  25.8  80.6
2019-12-02 07:00  18.3  22.0   315  31.5  27.8  86.3
2019-12-02 06:00  18.3  22.4   315  32.2  28.8  87.3
2019-12-02 05:00  21.0  24.3   322  32.5  29.4  88.2
2019-12-02 04:00  20.4  23.7   315  32.7  29.9  89.2
2019-12-02 03:00  21.8  23.1   324  32.5  29.9  89.9
2019-12-02 02:00  28.2  30.1   328  33.8  31.5  91.3
2019-12-02 01:00  26.6  28.4   330  33.8  31.6  91.7
2019-12-02 00:00  22.2  26.2   324  33.1  32.2  96.4
2019-12-01 23:00  24.3  27.2   328  33.8  33.6  99.4
2019-12-01 22:00  27.0  30.3   326  34.3  32.8  94.1
2019-12-01 21:00  25.5  28.6   324  34.2  32.6  94.1
2019-12-01 20:00  22.4  24.7   323  34.2  33.3  96.6
2019-12-01 19:00  17.3  19.8   311  35.2  34.7  98.0
2019-12-01 18:00  22.0  24.3   327  36.3  35.3  95.9